KDBN/DBN METAR and TAF weather

Enter ICAO airport designator
Station Type Date Time Source
KDBN METAR 2020/09/21 06:35 UTC NOAA

KDBN 210635Z AUTO 07009KT 10SM CLR 15/10 A3032 RMK AO2


Station Type Date Time Source
KDBN Decoded METAR 2020/09/21 06:35 UTC NOAA

Dublin, W H 'Bud' Barron Airport, GA, United States (KDBN) 32-33-52N 082-59-06W
Sep 21, 2020 - 02:35 AM EDT / 2020.09.21 0635 UTC
Wind: from the ENE (070 degrees) at 10 MPH (9 KT):0
Visibility: 10 mile(s):0
Sky conditions: clear
Temperature: 59 F (15 C)
Dew Point: 50 F (10 C)
Relative Humidity: 72%
Pressure (altimeter): 30.32 in. Hg (1026 hPa)
ob: KDBN 210635Z AUTO 07009KT 10SM CLR 15/10 A3032 RMK AO2
cycle: 6

Station Type Date Time Source
KDBN TAF UTC NOAA

Error!

Example: see airport list